Stella Prima — PHEA — position and weather

sailwx.info

Track history (hours):
 
Tides and Currents Weather Stations Pressure Air Temp Water Temp Dewpoint Dewpoint Depression Visibility Wind Speed Wind Dir Waves Ship Positions

Stella Prima

Last reported at 2016-Aug-26 23:26 UTC. Time now 2016-Aug-27 18:50 UTC.
Position N 37°08' W 012°26'.

Length 100 m; beam 21 m.

Type: Cargo ship. MMSI: 246460000.

Date/timePositionNaut miles runAvg speedWind from/ knotsBaromVisibWave heightAir tempDewpointWater temp
2016-Aug-26 23:26N 37°08' W 012°26'1 1.3
2016-Aug-26 22:33N 37°09' W 012°26'71 6.4
2016-Aug-26 11:25N 38°16' W 011°57'5 1.7
2016-Aug-26 08:12N 38°22' W 011°57'913.3
2016-Aug-26 07:32N 38°30' W 011°54'6913.8
2016-Aug-26 02:31N 39°37' W 011°28'45812.0
2016-Aug-24 12:17N 45°45' W 005°18'15 4.8
2016-Aug-24 09:09N 45°52' W 004°58'1 1.5
2016-Aug-24 08:18N 45°53' W 004°58'1 1.5
2016-Aug-24 07:33N 45°54' W 004°57'1 1.5
2016-Aug-24 06:33N 45°55' W 004°57'2311.4
2016-Aug-24 04:33N 46°08' W 004°30'1212.1
2016-Aug-24 03:34N 46°15' W 004°16'1211.7
2016-Aug-24 02:33N 46°22' W 004°02'1212.1
2016-Aug-24 01:33N 46°29' W 003°47'1212.4
2016-Aug-24 00:33N 46°36' W 003°32'1312.8
2016-Aug-23 23:33N 46°43' W 003°17'1312.8
2016-Aug-23 22:33N 46°50' W 003°02'1313.0
2016-Aug-23 21:34N 46°58' W 002°46'1211.9
2016-Aug-23 20:33N 47°03' W 002°31'9 9.2
2016-Aug-23 19:33N 47°09' W 002°20'8 7.8
2016-Aug-23 18:33N 47°15' W 002°13'2 1.8
2016-Aug-23 17:33N 47°17' W 002°12'0 0.2
2016-Aug-23 16:31N 47°17' W 002°12'0 0.0
2016-Aug-23 15:13N 47°17' W 002°12'0 0.0
2016-Aug-23 14:19N 47°17' W 002°12'0 0.0
2016-Aug-23 11:28N 47°17' W 002°12'0 0.0
2016-Aug-23 10:25N 47°17' W 002°12'0 0.0
2016-Aug-23 09:16N 47°17' W 002°12'0 0.0
2016-Aug-23 08:25N 47°17' W 002°12'0 0.0
2016-Aug-23 07:25N 47°17' W 002°12'0 0.0
2016-Aug-23 06:28N 47°17' W 002°12'0 0.0
2016-Aug-23 05:25N 47°17' W 002°12'0 0.0
2016-Aug-23 04:25N 47°17' W 002°12'0 0.0
2016-Aug-23 03:31N 47°17' W 002°12'0 0.0
2016-Aug-23 02:31N 47°17' W 002°12'0 0.0
2016-Aug-23 01:28N 47°17' W 002°12'0 0.0
2016-Aug-23 00:31N 47°17' W 002°12'0 0.0
2016-Aug-22 23:31N 47°17' W 002°12'0 0.0
2016-Aug-22 22:31N 47°17' W 002°12'0 0.0
2016-Aug-22 21:31N 47°17' W 002°12'0 0.0
2016-Aug-22 20:31N 47°17' W 002°12'0 0.0
2016-Aug-22 19:31N 47°17' W 002°12'0 0.0
2016-Aug-22 18:28N 47°17' W 002°12'0 0.0
2016-Aug-22 17:31N 47°17' W 002°12'0 0.0
2016-Aug-22 16:25N 47°17' W 002°12'0 0.0
2016-Aug-22 14:10N 47°17' W 002°12'0 0.0
2016-Aug-22 13:19N 47°17' W 002°12'0 0.0
2016-Aug-22 12:31N 47°17' W 002°12'0 0.0
2016-Aug-22 11:31N 47°17' W 002°12'0 0.0
2016-Aug-22 10:25N 47°17' W 002°12'0 0.0
2016-Aug-22 09:31N 47°17' W 002°12'0 0.0
2016-Aug-22 08:31N 47°17' W 002°12'0 0.0
2016-Aug-22 07:31N 47°17' W 002°12'0 0.5
2016-Aug-22 06:33N 47°17' W 002°12'3 3.2
2016-Aug-22 05:33N 47°14' W 002°15'10 9.6
2016-Aug-22 04:33N 47°06' W 002°23'8 8.3
2016-Aug-22 03:33N 47°03' W 002°34'1010.1
2016-Aug-22 02:34N 46°57' W 002°46'1515.1
2016-Aug-22 01:34N 46°48' W 003°04'1514.8
2016-Aug-22 00:33N 46°39' W 003°21'1414.3
2016-Aug-21 23:34N 46°30' W 003°38'1514.0
2016-Aug-21 22:30N 46°22' W 003°55'1313.4
2016-Aug-21 21:33N 46°14' W 004°10'1413.4
2016-Aug-21 20:32N 46°06' W 004°26'46811.6
2016-Aug-20 04:05N 39°23' W 009°50'712.3
2016-Aug-20 03:33N 39°16' W 009°50'1212.3
2016-Aug-20 02:33N 39°04' W 009°50'1312.6
2016-Aug-20 01:33N 38°51' W 009°50'1312.7
2016-Aug-20 00:33N 38°39' W 009°49'1211.8
2016-Aug-19 23:33N 38°31' W 009°37'10 9.5
2016-Aug-19 22:33N 38°24' W 009°29'8 8.2
2016-Aug-19 21:33N 38°19' W 009°21'7 7.2
2016-Aug-19 20:33N 38°20' W 009°12'6 6.0
2016-Aug-19 19:33N 38°23' W 009°05'5 4.6
2016-Aug-19 18:33N 38°26' W 009°00'5 4.6
2016-Aug-19 17:33N 38°29' W 008°56'4 3.9
2016-Aug-19 16:33N 38°29' W 008°51'2 1.5
2016-Aug-19 15:32N 38°28' W 008°49'1 1.2
2016-Aug-19 14:32N 38°28' W 008°48'0 0.0
2016-Aug-19 13:32N 38°28' W 008°48'0 0.0
2016-Aug-19 12:32N 38°28' W 008°48'0 0.0
2016-Aug-19 11:29N 38°28' W 008°48'0 0.0
2016-Aug-19 10:23N 38°28' W 008°48'0 0.0
2016-Aug-19 09:17N 38°28' W 008°48'0 0.0
2016-Aug-19 05:29N 38°28' W 008°48'0 0.0
2016-Aug-19 04:32N 38°28' W 008°48'0 0.0
2016-Aug-19 02:29N 38°28' W 008°48'0 0.0
2016-Aug-19 01:32N 38°28' W 008°48'0 0.0
2016-Aug-19 00:29N 38°28' W 008°48'0 0.0
2016-Aug-18 23:32N 38°28' W 008°48'0 0.0
2016-Aug-18 22:29N 38°28' W 008°48'0 0.0
2016-Aug-18 21:29N 38°28' W 008°48'0 0.0
2016-Aug-18 20:32N 38°28' W 008°48'0 0.0
2016-Aug-18 19:32N 38°28' W 008°48'0 0.0
2016-Aug-18 18:32N 38°28' W 008°48'0 0.0
2016-Aug-18 17:26N 38°28' W 008°48'0 0.0
2016-Aug-18 16:32N 38°28' W 008°48'0 0.0
2016-Aug-18 15:32N 38°28' W 008°48'0 0.0
2016-Aug-18 14:32N 38°28' W 008°48'0 0.0
2016-Aug-18 13:29N 38°28' W 008°48'0 0.0
2016-Aug-18 12:32N 38°28' W 008°48'0 0.0
2016-Aug-18 11:17N 38°28' W 008°48'0 0.0
2016-Aug-18 10:29N 38°28' W 008°48'0 0.0
2016-Aug-18 06:29N 38°28' W 008°48'0 0.0
2016-Aug-18 04:29N 38°28' W 008°48'0 0.0
2016-Aug-18 03:29N 38°28' W 008°48'0 0.0
2016-Aug-18 02:23N 38°28' W 008°48'0 0.0
2016-Aug-18 01:32N 38°28' W 008°48'0 0.0
2016-Aug-18 00:23N 38°28' W 008°48'0 0.0
2016-Aug-17 23:32N 38°28' W 008°48'0 0.0
2016-Aug-17 21:11N 38°28' W 008°48'0 0.0
2016-Aug-17 20:32N 38°28' W 008°48'0 0.0
2016-Aug-17 19:26N 38°28' W 008°48'0 0.0
2016-Aug-17 18:32N 38°28' W 008°48'0 0.0
2016-Aug-17 17:32N 38°28' W 008°48'0 0.0
2016-Aug-17 16:29N 38°28' W 008°48'0 0.0
2016-Aug-17 15:20N 38°28' W 008°48'0 0.0
2016-Aug-17 14:29N 38°28' W 008°48'0 0.0
2016-Aug-17 13:32N 38°28' W 008°48'0 0.0
2016-Aug-17 12:32N 38°28' W 008°48'0 0.0
2016-Aug-17 11:32N 38°28' W 008°48'0 0.0
2016-Aug-17 10:32N 38°28' W 008°48'0 0.0
2016-Aug-17 09:29N 38°28' W 008°48'0 0.0
2016-Aug-17 08:26N 38°28' W 008°48'0 0.0
2016-Aug-17 07:32N 38°28' W 008°48'0 0.0
2016-Aug-17 05:32N 38°28' W 008°48'0 0.0
2016-Aug-17 04:29N 38°28' W 008°48'0 0.0
2016-Aug-17 03:29N 38°28' W 008°48'0 0.0
2016-Aug-17 01:29N 38°28' W 008°48'0 0.0
2016-Aug-17 00:23N 38°28' W 008°48'0 0.0
2016-Aug-16 23:29N 38°28' W 008°48'  
Track history (hours):
 
Tides and Currents Weather Stations Pressure Air Temp Water Temp Dewpoint Dewpoint Depression Visibility Wind Speed Wind Dir Waves Ship Positions

Stella Prima

Last reported at 2016-Aug-26 23:26 UTC. Time now 2016-Aug-27 18:50 UTC.
Position N 37°08' W 012°26'.

Length 100 m; beam 21 m.

Type: Cargo ship. MMSI: 246460000.

Date/timePositionNaut miles runAvg speedWind from/ knotsBaromVisibWave heightAir tempDewpointWater temp
2016-Aug-26 23:26N 37°08' W 012°26'1 1.3
2016-Aug-26 22:33N 37°09' W 012°26'71 6.4
2016-Aug-26 11:25N 38°16' W 011°57'5 1.7
2016-Aug-26 08:12N 38°22' W 011°57'913.3
2016-Aug-26 07:32N 38°30' W 011°54'6913.8
2016-Aug-26 02:31N 39°37' W 011°28'45812.0
2016-Aug-24 12:17N 45°45' W 005°18'15 4.8
2016-Aug-24 09:09N 45°52' W 004°58'1 1.5
2016-Aug-24 08:18N 45°53' W 004°58'1 1.5
2016-Aug-24 07:33N 45°54' W 004°57'1 1.5
2016-Aug-24 06:33N 45°55' W 004°57'2311.4
2016-Aug-24 04:33N 46°08' W 004°30'1212.1
2016-Aug-24 03:34N 46°15' W 004°16'1211.7
2016-Aug-24 02:33N 46°22' W 004°02'1212.1
2016-Aug-24 01:33N 46°29' W 003°47'1212.4
2016-Aug-24 00:33N 46°36' W 003°32'1312.8
2016-Aug-23 23:33N 46°43' W 003°17'1312.8
2016-Aug-23 22:33N 46°50' W 003°02'1313.0
2016-Aug-23 21:34N 46°58' W 002°46'1211.9
2016-Aug-23 20:33N 47°03' W 002°31'9 9.2
2016-Aug-23 19:33N 47°09' W 002°20'8 7.8
2016-Aug-23 18:33N 47°15' W 002°13'2 1.8
2016-Aug-23 17:33N 47°17' W 002°12'0 0.2
2016-Aug-23 16:31N 47°17' W 002°12'0 0.0
2016-Aug-23 15:13N 47°17' W 002°12'0 0.0
2016-Aug-23 14:19N 47°17' W 002°12'0 0.0
2016-Aug-23 11:28N 47°17' W 002°12'0 0.0
2016-Aug-23 10:25N 47°17' W 002°12'0 0.0
2016-Aug-23 09:16N 47°17' W 002°12'0 0.0
2016-Aug-23 08:25N 47°17' W 002°12'0 0.0
2016-Aug-23 07:25N 47°17' W 002°12'0 0.0
2016-Aug-23 06:28N 47°17' W 002°12'0 0.0
2016-Aug-23 05:25N 47°17' W 002°12'0 0.0
2016-Aug-23 04:25N 47°17' W 002°12'0 0.0
2016-Aug-23 03:31N 47°17' W 002°12'0 0.0
2016-Aug-23 02:31N 47°17' W 002°12'0 0.0
2016-Aug-23 01:28N 47°17' W 002°12'0 0.0
2016-Aug-23 00:31N 47°17' W 002°12'0 0.0
2016-Aug-22 23:31N 47°17' W 002°12'0 0.0
2016-Aug-22 22:31N 47°17' W 002°12'0 0.0
2016-Aug-22 21:31N 47°17' W 002°12'0 0.0
2016-Aug-22 20:31N 47°17' W 002°12'0 0.0
2016-Aug-22 19:31N 47°17' W 002°12'0 0.0
2016-Aug-22 18:28N 47°17' W 002°12'0 0.0
2016-Aug-22 17:31N 47°17' W 002°12'0 0.0
2016-Aug-22 16:25N 47°17' W 002°12'0 0.0
2016-Aug-22 14:10N 47°17' W 002°12'0 0.0
2016-Aug-22 13:19N 47°17' W 002°12'0 0.0
2016-Aug-22 12:31N 47°17' W 002°12'0 0.0
2016-Aug-22 11:31N 47°17' W 002°12'0 0.0
2016-Aug-22 10:25N 47°17' W 002°12'0 0.0
2016-Aug-22 09:31N 47°17' W 002°12'0 0.0
2016-Aug-22 08:31N 47°17' W 002°12'0 0.0
2016-Aug-22 07:31N 47°17' W 002°12'0 0.5
2016-Aug-22 06:33N 47°17' W 002°12'3 3.2
2016-Aug-22 05:33N 47°14' W 002°15'10 9.6
2016-Aug-22 04:33N 47°06' W 002°23'8 8.3
2016-Aug-22 03:33N 47°03' W 002°34'1010.1
2016-Aug-22 02:34N 46°57' W 002°46'1515.1
2016-Aug-22 01:34N 46°48' W 003°04'1514.8
2016-Aug-22 00:33N 46°39' W 003°21'1414.3
2016-Aug-21 23:34N 46°30' W 003°38'1514.0
2016-Aug-21 22:30N 46°22' W 003°55'1313.4
2016-Aug-21 21:33N 46°14' W 004°10'1413.4
2016-Aug-21 20:32N 46°06' W 004°26'46811.6
2016-Aug-20 04:05N 39°23' W 009°50'712.3
2016-Aug-20 03:33N 39°16' W 009°50'1212.3
2016-Aug-20 02:33N 39°04' W 009°50'1312.6
2016-Aug-20 01:33N 38°51' W 009°50'1312.7
2016-Aug-20 00:33N 38°39' W 009°49'1211.8
2016-Aug-19 23:33N 38°31' W 009°37'10 9.5
2016-Aug-19 22:33N 38°24' W 009°29'8 8.2
2016-Aug-19 21:33N 38°19' W 009°21'7 7.2
2016-Aug-19 20:33N 38°20' W 009°12'6 6.0
2016-Aug-19 19:33N 38°23' W 009°05'5 4.6
2016-Aug-19 18:33N 38°26' W 009°00'5 4.6
2016-Aug-19 17:33N 38°29' W 008°56'4 3.9
2016-Aug-19 16:33N 38°29' W 008°51'2 1.5
2016-Aug-19 15:32N 38°28' W 008°49'1 1.2
2016-Aug-19 14:32N 38°28' W 008°48'0 0.0
2016-Aug-19 13:32N 38°28' W 008°48'0 0.0
2016-Aug-19 12:32N 38°28' W 008°48'0 0.0
2016-Aug-19 11:29N 38°28' W 008°48'0 0.0
2016-Aug-19 10:23N 38°28' W 008°48'0 0.0
2016-Aug-19 09:17N 38°28' W 008°48'0 0.0
2016-Aug-19 05:29N 38°28' W 008°48'0 0.0
2016-Aug-19 04:32N 38°28' W 008°48'0 0.0
2016-Aug-19 02:29N 38°28' W 008°48'0 0.0
2016-Aug-19 01:32N 38°28' W 008°48'0 0.0
2016-Aug-19 00:29N 38°28' W 008°48'0 0.0
2016-Aug-18 23:32N 38°28' W 008°48'0 0.0
2016-Aug-18 22:29N 38°28' W 008°48'0 0.0
2016-Aug-18 21:29N 38°28' W 008°48'0 0.0
2016-Aug-18 20:32N 38°28' W 008°48'0 0.0
2016-Aug-18 19:32N 38°28' W 008°48'0 0.0
2016-Aug-18 18:32N 38°28' W 008°48'0 0.0
2016-Aug-18 17:26N 38°28' W 008°48'0 0.0
2016-Aug-18 16:32N 38°28' W 008°48'0 0.0
2016-Aug-18 15:32N 38°28' W 008°48'0 0.0
2016-Aug-18 14:32N 38°28' W 008°48'0 0.0
2016-Aug-18 13:29N 38°28' W 008°48'0 0.0
2016-Aug-18 12:32N 38°28' W 008°48'0 0.0
2016-Aug-18 11:17N 38°28' W 008°48'0 0.0
2016-Aug-18 10:29N 38°28' W 008°48'0 0.0
2016-Aug-18 06:29N 38°28' W 008°48'0 0.0
2016-Aug-18 04:29N 38°28' W 008°48'0 0.0
2016-Aug-18 03:29N 38°28' W 008°48'0 0.0
2016-Aug-18 02:23N 38°28' W 008°48'0 0.0
2016-Aug-18 01:32N 38°28' W 008°48'0 0.0
2016-Aug-18 00:23N 38°28' W 008°48'0 0.0
2016-Aug-17 23:32N 38°28' W 008°48'0 0.0
2016-Aug-17 21:11N 38°28' W 008°48'0 0.0
2016-Aug-17 20:32N 38°28' W 008°48'0 0.0
2016-Aug-17 19:26N 38°28' W 008°48'0 0.0
2016-Aug-17 18:32N 38°28' W 008°48'0 0.0
2016-Aug-17 17:32N 38°28' W 008°48'0 0.0
2016-Aug-17 16:29N 38°28' W 008°48'0 0.0
2016-Aug-17 15:20N 38°28' W 008°48'0 0.0
2016-Aug-17 14:29N 38°28' W 008°48'0 0.0
2016-Aug-17 13:32N 38°28' W 008°48'0 0.0
2016-Aug-17 12:32N 38°28' W 008°48'0 0.0
2016-Aug-17 11:32N 38°28' W 008°48'0 0.0
2016-Aug-17 10:32N 38°28' W 008°48'0 0.0
2016-Aug-17 09:29N 38°28' W 008°48'0 0.0
2016-Aug-17 08:26N 38°28' W 008°48'0 0.0
2016-Aug-17 07:32N 38°28' W 008°48'0 0.0
2016-Aug-17 05:32N 38°28' W 008°48'0 0.0
2016-Aug-17 04:29N 38°28' W 008°48'0 0.0
2016-Aug-17 03:29N 38°28' W 008°48'0 0.0
2016-Aug-17 01:29N 38°28' W 008°48'0 0.0
2016-Aug-17 00:23N 38°28' W 008°48'0 0.0
2016-Aug-16 23:29N 38°28' W 008°48'  

Dump ship's entire track history